sensor_id;sensor_type;location;lat;lon;timestamp;P1;durP1;ratioP1;P2;durP2;ratioP2
47635;SDS011;33364;50.766;15.338;2024-02-15T00:02:20;25.05;;;15.27;;
47635;SDS011;33364;50.766;15.338;2024-02-15T00:04:46;25.48;;;15.85;;
47635;SDS011;33364;50.766;15.338;2024-02-15T00:07:12;28.58;;;15.68;;
47635;SDS011;33364;50.766;15.338;2024-02-15T00:09:37;26.20;;;15.75;;
47635;SDS011;33364;50.766;15.338;2024-02-15T00:12:03;23.55;;;14.27;;
47635;SDS011;33364;50.766;15.338;2024-02-15T00:14:30;21.80;;;14.02;;
47635;SDS011;33364;50.766;15.338;2024-02-15T00:16:57;24.67;;;15.45;;
47635;SDS011;33364;50.766;15.338;2024-02-15T00:19:23;25.15;;;17.05;;
47635;SDS011;33364;50.766;15.338;2024-02-15T00:21:50;21.10;;;13.10;;
47635;SDS011;33364;50.766;15.338;2024-02-15T00:24:15;26.60;;;16.02;;
47635;SDS011;33364;50.766;15.338;2024-02-15T00:26:42;29.98;;;18.08;;
47635;SDS011;33364;50.766;15.338;2024-02-15T00:29:08;30.25;;;19.70;;
47635;SDS011;33364;50.766;15.338;2024-02-15T00:31:34;32.15;;;21.08;;
47635;SDS011;33364;50.766;15.338;2024-02-15T00:34:01;28.20;;;17.55;;
47635;SDS011;33364;50.766;15.338;2024-02-15T00:36:30;26.15;;;15.02;;
47635;SDS011;33364;50.766;15.338;2024-02-15T00:38:55;32.53;;;19.77;;
47635;SDS011;33364;50.766;15.338;2024-02-15T00:41:21;24.45;;;15.23;;
47635;SDS011;33364;50.766;15.338;2024-02-15T00:43:47;30.90;;;18.45;;
47635;SDS011;33364;50.766;15.338;2024-02-15T00:46:13;23.38;;;15.52;;
47635;SDS011;33364;50.766;15.338;2024-02-15T00:48:41;18.00;;;11.18;;
47635;SDS011;33364;50.766;15.338;2024-02-15T00:51:07;12.15;;;8.13;;
47635;SDS011;33364;50.766;15.338;2024-02-15T00:53:33;13.05;;;8.23;;
47635;SDS011;33364;50.766;15.338;2024-02-15T00:55:59;11.30;;;8.05;;
47635;SDS011;33364;50.766;15.338;2024-02-15T00:58:24;12.27;;;7.40;;
47635;SDS011;33364;50.766;15.338;2024-02-15T01:00:53;21.33;;;13.13;;
47635;SDS011;33364;50.766;15.338;2024-02-15T01:03:19;21.40;;;13.63;;
47635;SDS011;33364;50.766;15.338;2024-02-15T01:05:45;21.95;;;13.98;;
47635;SDS011;33364;50.766;15.338;2024-02-15T01:08:11;22.77;;;13.20;;
47635;SDS011;33364;50.766;15.338;2024-02-15T01:10:37;17.52;;;12.70;;
47635;SDS011;33364;50.766;15.338;2024-02-15T01:13:03;18.85;;;12.50;;
47635;SDS011;33364;50.766;15.338;2024-02-15T01:15:29;14.95;;;10.00;;
47635;SDS011;33364;50.766;15.338;2024-02-15T01:17:55;16.48;;;11.02;;
47635;SDS011;33364;50.766;15.338;2024-02-15T01:20:21;13.90;;;9.85;;
47635;SDS011;33364;50.766;15.338;2024-02-15T01:22:47;16.58;;;10.13;;
47635;SDS011;33364;50.766;15.338;2024-02-15T01:25:13;15.18;;;9.07;;
47635;SDS011;33364;50.766;15.338;2024-02-15T01:27:40;15.85;;;9.52;;
47635;SDS011;33364;50.766;15.338;2024-02-15T01:30:06;15.10;;;9.32;;
47635;SDS011;33364;50.766;15.338;2024-02-15T01:32:33;14.98;;;9.77;;
47635;SDS011;33364;50.766;15.338;2024-02-15T01:34:59;12.88;;;8.48;;
47635;SDS011;33364;50.766;15.338;2024-02-15T01:37:25;16.77;;;10.65;;
47635;SDS011;33364;50.766;15.338;2024-02-15T01:39:51;17.40;;;10.95;;
47635;SDS011;33364;50.766;15.338;2024-02-15T01:42:17;17.75;;;11.93;;
47635;SDS011;33364;50.766;15.338;2024-02-15T01:44:43;19.75;;;13.15;;
47635;SDS011;33364;50.766;15.338;2024-02-15T01:47:14;16.13;;;11.07;;
47635;SDS011;33364;50.766;15.338;2024-02-15T01:49:43;14.70;;;9.15;;
47635;SDS011;33364;50.766;15.338;2024-02-15T01:52:08;18.15;;;12.05;;
47635;SDS011;33364;50.766;15.338;2024-02-15T01:54:35;15.55;;;9.52;;
47635;SDS011;33364;50.766;15.338;2024-02-15T01:57:04;23.38;;;13.48;;
47635;SDS011;33364;50.766;15.338;2024-02-15T01:59:31;21.15;;;12.45;;
47635;SDS011;33364;50.766;15.338;2024-02-15T02:01:57;12.27;;;8.57;;
47635;SDS011;33364;50.766;15.338;2024-02-15T02:04:23;11.43;;;6.38;;
47635;SDS011;33364;50.766;15.338;2024-02-15T02:06:48;11.07;;;7.03;;
47635;SDS011;33364;50.766;15.338;2024-02-15T02:09:14;13.13;;;8.00;;
47635;SDS011;33364;50.766;15.338;2024-02-15T02:11:41;10.02;;;7.13;;
47635;SDS011;33364;50.766;15.338;2024-02-15T02:14:10;12.93;;;7.13;;
47635;SDS011;33364;50.766;15.338;2024-02-15T02:16:36;12.75;;;7.38;;
47635;SDS011;33364;50.766;15.338;2024-02-15T02:19:04;9.88;;;6.68;;
47635;SDS011;33364;50.766;15.338;2024-02-15T02:21:34;16.27;;;9.48;;
47635;SDS011;33364;50.766;15.338;2024-02-15T02:24:04;13.10;;;8.40;;
47635;SDS011;33364;50.766;15.338;2024-02-15T02:26:37;11.07;;;6.43;;
47635;SDS011;33364;50.766;15.338;2024-02-15T02:29:04;9.57;;;6.72;;
47635;SDS011;33364;50.766;15.338;2024-02-15T02:31:33;14.07;;;8.75;;
47635;SDS011;33364;50.766;15.338;2024-02-15T02:34:02;19.08;;;8.90;;
47635;SDS011;33364;50.766;15.338;2024-02-15T02:36:28;12.25;;;7.70;;
47635;SDS011;33364;50.766;15.338;2024-02-15T02:38:55;12.98;;;7.18;;
47635;SDS011;33364;50.766;15.338;2024-02-15T02:41:25;10.52;;;6.45;;
47635;SDS011;33364;50.766;15.338;2024-02-15T02:43:51;10.98;;;6.60;;
47635;SDS011;33364;50.766;15.338;2024-02-15T02:46:17;8.30;;;5.60;;
47635;SDS011;33364;50.766;15.338;2024-02-15T02:48:43;10.63;;;7.20;;
47635;SDS011;33364;50.766;15.338;2024-02-15T02:51:08;9.93;;;6.68;;
47635;SDS011;33364;50.766;15.338;2024-02-15T02:53:34;11.15;;;7.25;;
47635;SDS011;33364;50.766;15.338;2024-02-15T02:56:00;10.23;;;6.97;;
47635;SDS011;33364;50.766;15.338;2024-02-15T02:58:27;12.23;;;7.18;;
47635;SDS011;33364;50.766;15.338;2024-02-15T03:00:53;13.00;;;6.93;;
47635;SDS011;33364;50.766;15.338;2024-02-15T03:03:20;10.55;;;7.10;;
47635;SDS011;33364;50.766;15.338;2024-02-15T03:05:48;10.05;;;6.65;;
47635;SDS011;33364;50.766;15.338;2024-02-15T03:08:14;10.48;;;6.93;;
47635;SDS011;33364;50.766;15.338;2024-02-15T03:10:42;9.52;;;5.32;;
47635;SDS011;33364;50.766;15.338;2024-02-15T03:13:09;10.02;;;6.05;;
47635;SDS011;33364;50.766;15.338;2024-02-15T03:15:37;9.45;;;5.88;;
47635;SDS011;33364;50.766;15.338;2024-02-15T03:18:03;8.73;;;5.70;;
47635;SDS011;33364;50.766;15.338;2024-02-15T03:20:32;9.77;;;6.00;;
47635;SDS011;33364;50.766;15.338;2024-02-15T03:22:59;8.85;;;5.50;;
47635;SDS011;33364;50.766;15.338;2024-02-15T03:25:26;10.65;;;5.97;;
47635;SDS011;33364;50.766;15.338;2024-02-15T03:27:54;10.63;;;6.38;;
47635;SDS011;33364;50.766;15.338;2024-02-15T03:30:25;11.38;;;6.85;;
47635;SDS011;33364;50.766;15.338;2024-02-15T03:32:52;10.20;;;6.50;;
47635;SDS011;33364;50.766;15.338;2024-02-15T03:35:19;10.63;;;6.70;;
47635;SDS011;33364;50.766;15.338;2024-02-15T03:37:48;10.07;;;6.45;;
47635;SDS011;33364;50.766;15.338;2024-02-15T03:40:17;9.20;;;6.00;;
47635;SDS011;33364;50.766;15.338;2024-02-15T03:42:44;8.70;;;5.50;;
47635;SDS011;33364;50.766;15.338;2024-02-15T03:45:11;12.05;;;6.57;;
47635;SDS011;33364;50.766;15.338;2024-02-15T03:47:38;9.32;;;5.68;;
47635;SDS011;33364;50.766;15.338;2024-02-15T03:52:30;11.07;;;6.63;;
47635;SDS011;33364;50.766;15.338;2024-02-15T03:54:57;11.77;;;7.40;;
47635;SDS011;33364;50.766;15.338;2024-02-15T03:57:25;11.57;;;6.40;;
47635;SDS011;33364;50.766;15.338;2024-02-15T03:59:51;11.18;;;6.55;;
47635;SDS011;33364;50.766;15.338;2024-02-15T04:02:18;11.40;;;6.65;;
47635;SDS011;33364;50.766;15.338;2024-02-15T04:04:44;9.13;;;6.18;;
47635;SDS011;33364;50.766;15.338;2024-02-15T04:07:15;13.85;;;6.80;;
47635;SDS011;33364;50.766;15.338;2024-02-15T04:09:47;13.85;;;7.78;;
47635;SDS011;33364;50.766;15.338;2024-02-15T04:12:14;11.82;;;7.07;;
47635;SDS011;33364;50.766;15.338;2024-02-15T04:14:40;9.63;;;6.38;;
47635;SDS011;33364;50.766;15.338;2024-02-15T04:17:06;15.63;;;7.13;;
47635;SDS011;33364;50.766;15.338;2024-02-15T04:19:32;10.05;;;6.05;;
47635;SDS011;33364;50.766;15.338;2024-02-15T04:21:58;11.32;;;5.80;;
47635;SDS011;33364;50.766;15.338;2024-02-15T04:24:28;11.02;;;6.05;;
47635;SDS011;33364;50.766;15.338;2024-02-15T04:26:55;10.05;;;5.15;;
47635;SDS011;33364;50.766;15.338;2024-02-15T04:29:20;7.65;;;5.15;;
47635;SDS011;33364;50.766;15.338;2024-02-15T04:31:46;9.25;;;4.78;;
47635;SDS011;33364;50.766;15.338;2024-02-15T04:34:16;8.38;;;5.13;;
47635;SDS011;33364;50.766;15.338;2024-02-15T04:36:45;10.55;;;5.97;;
47635;SDS011;33364;50.766;15.338;2024-02-15T04:39:15;9.43;;;4.82;;
47635;SDS011;33364;50.766;15.338;2024-02-15T04:41:52;8.82;;;5.47;;
47635;SDS011;33364;50.766;15.338;2024-02-15T04:44:19;9.95;;;5.57;;
47635;SDS011;33364;50.766;15.338;2024-02-15T04:46:55;8.88;;;5.20;;
47635;SDS011;33364;50.766;15.338;2024-02-15T04:49:21;10.35;;;6.50;;
47635;SDS011;33364;50.766;15.338;2024-02-15T04:51:48;10.35;;;5.43;;
47635;SDS011;33364;50.766;15.338;2024-02-15T04:54:14;9.65;;;6.15;;
47635;SDS011;33364;50.766;15.338;2024-02-15T04:56:40;9.98;;;5.95;;
47635;SDS011;33364;50.766;15.338;2024-02-15T04:59:09;14.30;;;6.13;;
47635;SDS011;33364;50.766;15.338;2024-02-15T05:01:37;11.23;;;5.63;;
47635;SDS011;33364;50.766;15.338;2024-02-15T05:04:03;9.43;;;5.70;;
47635;SDS011;33364;50.766;15.338;2024-02-15T05:06:33;12.57;;;5.07;;
47635;SDS011;33364;50.766;15.338;2024-02-15T05:08:59;9.52;;;5.63;;
47635;SDS011;33364;50.766;15.338;2024-02-15T05:11:33;6.88;;;4.78;;
47635;SDS011;33364;50.766;15.338;2024-02-15T05:14:02;11.15;;;4.70;;
47635;SDS011;33364;50.766;15.338;2024-02-15T05:16:32;9.80;;;4.97;;
47635;SDS011;33364;50.766;15.338;2024-02-15T05:18:58;11.73;;;4.22;;
47635;SDS011;33364;50.766;15.338;2024-02-15T05:21:24;10.55;;;4.68;;
47635;SDS011;33364;50.766;15.338;2024-02-15T05:23:49;8.45;;;4.95;;
47635;SDS011;33364;50.766;15.338;2024-02-15T05:26:17;12.35;;;5.55;;
47635;SDS011;33364;50.766;15.338;2024-02-15T05:28:48;8.95;;;5.43;;
47635;SDS011;33364;50.766;15.338;2024-02-15T05:31:18;8.20;;;5.40;;
47635;SDS011;33364;50.766;15.338;2024-02-15T05:33:50;11.75;;;5.32;;
47635;SDS011;33364;50.766;15.338;2024-02-15T05:36:18;14.80;;;6.55;;
47635;SDS011;33364;50.766;15.338;2024-02-15T05:38:46;10.80;;;6.10;;
47635;SDS011;33364;50.766;15.338;2024-02-15T05:41:13;10.23;;;5.47;;
47635;SDS011;33364;50.766;15.338;2024-02-15T05:43:39;11.07;;;5.85;;
47635;SDS011;33364;50.766;15.338;2024-02-15T05:46:07;11.43;;;5.38;;
47635;SDS011;33364;50.766;15.338;2024-02-15T05:48:33;12.15;;;6.10;;
47635;SDS011;33364;50.766;15.338;2024-02-15T05:51:05;11.00;;;6.35;;
47635;SDS011;33364;50.766;15.338;2024-02-15T05:53:32;11.77;;;5.55;;
47635;SDS011;33364;50.766;15.338;2024-02-15T05:56:01;7.93;;;4.88;;
47635;SDS011;33364;50.766;15.338;2024-02-15T05:58:30;15.23;;;8.00;;
47635;SDS011;33364;50.766;15.338;2024-02-15T06:00:57;11.27;;;7.38;;
47635;SDS011;33364;50.766;15.338;2024-02-15T06:03:29;13.63;;;7.15;;
47635;SDS011;33364;50.766;15.338;2024-02-15T06:05:57;13.85;;;7.40;;
47635;SDS011;33364;50.766;15.338;2024-02-15T06:08:30;13.15;;;5.75;;
47635;SDS011;33364;50.766;15.338;2024-02-15T06:10:56;12.68;;;6.72;;
47635;SDS011;33364;50.766;15.338;2024-02-15T06:13:22;12.35;;;6.05;;
47635;SDS011;33364;50.766;15.338;2024-02-15T06:15:49;13.93;;;6.53;;
47635;SDS011;33364;50.766;15.338;2024-02-15T06:18:21;12.15;;;6.93;;
47635;SDS011;33364;50.766;15.338;2024-02-15T06:20:52;11.30;;;6.65;;
47635;SDS011;33364;50.766;15.338;2024-02-15T06:23:18;11.43;;;6.72;;
47635;SDS011;33364;50.766;15.338;2024-02-15T06:25:46;11.45;;;7.20;;
47635;SDS011;33364;50.766;15.338;2024-02-15T06:28:16;11.63;;;6.90;;
47635;SDS011;33364;50.766;15.338;2024-02-15T06:31:05;10.95;;;6.47;;
47635;SDS011;33364;50.766;15.338;2024-02-15T06:33:51;11.00;;;6.65;;
47635;SDS011;33364;50.766;15.338;2024-02-15T06:36:48;12.63;;;7.45;;
47635;SDS011;33364;50.766;15.338;2024-02-15T06:39:39;18.60;;;9.85;;
47635;SDS011;33364;50.766;15.338;2024-02-15T06:42:08;17.90;;;10.02;;
47635;SDS011;33364;50.766;15.338;2024-02-15T06:44:36;12.30;;;7.53;;
47635;SDS011;33364;50.766;15.338;2024-02-15T06:47:04;11.15;;;6.28;;
47635;SDS011;33364;50.766;15.338;2024-02-15T06:49:29;11.23;;;5.95;;
47635;SDS011;33364;50.766;15.338;2024-02-15T06:51:55;9.63;;;6.10;;
47635;SDS011;33364;50.766;15.338;2024-02-15T06:54:21;10.50;;;6.50;;
47635;SDS011;33364;50.766;15.338;2024-02-15T06:56:48;13.20;;;7.38;;
47635;SDS011;33364;50.766;15.338;2024-02-15T06:59:13;17.52;;;9.75;;
47635;SDS011;33364;50.766;15.338;2024-02-15T07:01:43;10.93;;;6.88;;
47635;SDS011;33364;50.766;15.338;2024-02-15T07:04:09;8.85;;;5.93;;
47635;SDS011;33364;50.766;15.338;2024-02-15T07:06:38;11.93;;;7.70;;
47635;SDS011;33364;50.766;15.338;2024-02-15T07:09:07;37.00;;;15.90;;
47635;SDS011;33364;50.766;15.338;2024-02-15T07:11:33;19.15;;;10.50;;
47635;SDS011;33364;50.766;15.338;2024-02-15T07:14:02;12.02;;;7.18;;
47635;SDS011;33364;50.766;15.338;2024-02-15T07:16:30;8.23;;;5.90;;
47635;SDS011;33364;50.766;15.338;2024-02-15T07:18:56;10.07;;;6.35;;
47635;SDS011;33364;50.766;15.338;2024-02-15T07:21:22;10.57;;;6.35;;
47635;SDS011;33364;50.766;15.338;2024-02-15T07:23:54;14.85;;;5.80;;
47635;SDS011;33364;50.766;15.338;2024-02-15T07:26:21;14.88;;;7.45;;
47635;SDS011;33364;50.766;15.338;2024-02-15T07:28:51;11.98;;;6.53;;
47635;SDS011;33364;50.766;15.338;2024-02-15T07:31:19;12.35;;;7.20;;
47635;SDS011;33364;50.766;15.338;2024-02-15T07:33:47;11.23;;;6.32;;
47635;SDS011;33364;50.766;15.338;2024-02-15T07:36:20;22.27;;;11.80;;
47635;SDS011;33364;50.766;15.338;2024-02-15T07:38:50;10.48;;;6.50;;
47635;SDS011;33364;50.766;15.338;2024-02-15T07:41:23;8.77;;;5.88;;
47635;SDS011;33364;50.766;15.338;2024-02-15T07:43:49;9.10;;;6.00;;
47635;SDS011;33364;50.766;15.338;2024-02-15T07:46:16;8.27;;;4.97;;
47635;SDS011;33364;50.766;15.338;2024-02-15T07:48:42;8.90;;;6.10;;
47635;SDS011;33364;50.766;15.338;2024-02-15T07:51:12;14.15;;;6.45;;
47635;SDS011;33364;50.766;15.338;2024-02-15T07:53:41;12.48;;;8.68;;
47635;SDS011;33364;50.766;15.338;2024-02-15T07:56:11;11.68;;;7.95;;
47635;SDS011;33364;50.766;15.338;2024-02-15T07:58:48;14.25;;;8.32;;
47635;SDS011;33364;50.766;15.338;2024-02-15T08:01:17;10.45;;;6.50;;
47635;SDS011;33364;50.766;15.338;2024-02-15T08:03:44;10.30;;;6.60;;
47635;SDS011;33364;50.766;15.338;2024-02-15T08:06:11;10.82;;;7.28;;
47635;SDS011;33364;50.766;15.338;2024-02-15T08:08:38;14.75;;;9.88;;
47635;SDS011;33364;50.766;15.338;2024-02-15T08:11:06;21.65;;;11.20;;
47635;SDS011;33364;50.766;15.338;2024-02-15T08:13:44;16.10;;;8.70;;
47635;SDS011;33364;50.766;15.338;2024-02-15T08:16:23;17.67;;;11.60;;
47635;SDS011;33364;50.766;15.338;2024-02-15T08:18:52;27.85;;;15.45;;
47635;SDS011;33364;50.766;15.338;2024-02-15T08:21:25;9.20;;;6.65;;
47635;SDS011;33364;50.766;15.338;2024-02-15T08:23:52;10.98;;;6.40;;
47635;SDS011;33364;50.766;15.338;2024-02-15T08:26:17;13.00;;;6.28;;
47635;SDS011;33364;50.766;15.338;2024-02-15T08:28:43;7.65;;;5.22;;
47635;SDS011;33364;50.766;15.338;2024-02-15T08:31:09;8.35;;;5.50;;
47635;SDS011;33364;50.766;15.338;2024-02-15T08:33:37;8.60;;;6.13;;
47635;SDS011;33364;50.766;15.338;2024-02-15T08:36:04;14.07;;;11.27;;
47635;SDS011;33364;50.766;15.338;2024-02-15T08:38:31;20.85;;;16.45;;
47635;SDS011;33364;50.766;15.338;2024-02-15T08:40:56;14.43;;;11.65;;
47635;SDS011;33364;50.766;15.338;2024-02-15T08:43:22;15.38;;;10.40;;
47635;SDS011;33364;50.766;15.338;2024-02-15T08:45:48;19.33;;;10.15;;
47635;SDS011;33364;50.766;15.338;2024-02-15T08:48:14;14.43;;;10.48;;
47635;SDS011;33364;50.766;15.338;2024-02-15T08:50:40;17.13;;;12.00;;
47635;SDS011;33364;50.766;15.338;2024-02-15T08:53:07;11.77;;;8.48;;
47635;SDS011;33364;50.766;15.338;2024-02-15T08:55:33;7.75;;;6.03;;
47635;SDS011;33364;50.766;15.338;2024-02-15T08:58:01;11.32;;;5.85;;
47635;SDS011;33364;50.766;15.338;2024-02-15T09:00:28;16.85;;;9.30;;
47635;SDS011;33364;50.766;15.338;2024-02-15T09:02:54;15.52;;;10.43;;
47635;SDS011;33364;50.766;15.338;2024-02-15T09:05:19;18.73;;;10.18;;
47635;SDS011;33364;50.766;15.338;2024-02-15T09:07:47;21.45;;;10.95;;
47635;SDS011;33364;50.766;15.338;2024-02-15T09:10:14;10.82;;;7.55;;
47635;SDS011;33364;50.766;15.338;2024-02-15T09:12:43;14.68;;;9.90;;
47635;SDS011;33364;50.766;15.338;2024-02-15T09:15:12;13.85;;;9.40;;
47635;SDS011;33364;50.766;15.338;2024-02-15T09:17:38;15.02;;;10.48;;
47635;SDS011;33364;50.766;15.338;2024-02-15T09:20:06;13.10;;;8.13;;
47635;SDS011;33364;50.766;15.338;2024-02-15T09:22:33;15.43;;;8.23;;
47635;SDS011;33364;50.766;15.338;2024-02-15T09:25:02;12.00;;;7.85;;
47635;SDS011;33364;50.766;15.338;2024-02-15T09:27:28;13.95;;;8.68;;
47635;SDS011;33364;50.766;15.338;2024-02-15T09:29:53;21.40;;;14.43;;
47635;SDS011;33364;50.766;15.338;2024-02-15T09:32:21;72.65;;;49.08;;
47635;SDS011;33364;50.766;15.338;2024-02-15T09:34:47;56.28;;;37.20;;
47635;SDS011;33364;50.766;15.338;2024-02-15T09:37:15;30.63;;;20.92;;
47635;SDS011;33364;50.766;15.338;2024-02-15T09:39:40;35.42;;;23.55;;
47635;SDS011;33364;50.766;15.338;2024-02-15T09:42:07;33.53;;;23.70;;
47635;SDS011;33364;50.766;15.338;2024-02-15T09:44:32;43.05;;;29.65;;
47635;SDS011;33364;50.766;15.338;2024-02-15T09:47:05;39.08;;;23.80;;
47635;SDS011;33364;50.766;15.338;2024-02-15T09:49:37;38.70;;;24.90;;
47635;SDS011;33364;50.766;15.338;2024-02-15T09:52:08;35.67;;;21.90;;
47635;SDS011;33364;50.766;15.338;2024-02-15T09:54:40;45.00;;;24.50;;
47635;SDS011;33364;50.766;15.338;2024-02-15T09:57:09;38.88;;;21.92;;
47635;SDS011;33364;50.766;15.338;2024-02-15T09:59:36;32.42;;;19.02;;
47635;SDS011;33364;50.766;15.338;2024-02-15T10:02:03;31.58;;;16.45;;
47635;SDS011;33364;50.766;15.338;2024-02-15T10:04:34;27.45;;;15.63;;
47635;SDS011;33364;50.766;15.338;2024-02-15T10:07:00;39.78;;;20.33;;
47635;SDS011;33364;50.766;15.338;2024-02-15T10:09:26;42.15;;;22.40;;
47635;SDS011;33364;50.766;15.338;2024-02-15T10:11:57;56.47;;;29.88;;
47635;SDS011;33364;50.766;15.338;2024-02-15T10:14:24;64.28;;;33.42;;
47635;SDS011;33364;50.766;15.338;2024-02-15T10:16:55;52.55;;;28.50;;
47635;SDS011;33364;50.766;15.338;2024-02-15T10:19:21;60.85;;;35.67;;
47635;SDS011;33364;50.766;15.338;2024-02-15T10:21:52;73.45;;;42.20;;
47635;SDS011;33364;50.766;15.338;2024-02-15T10:24:20;51.53;;;30.48;;
47635;SDS011;33364;50.766;15.338;2024-02-15T10:26:49;63.30;;;35.10;;
47635;SDS011;33364;50.766;15.338;2024-02-15T10:29:16;44.42;;;25.88;;
47635;SDS011;33364;50.766;15.338;2024-02-15T10:31:53;26.65;;;12.95;;
47635;SDS011;33364;50.766;15.338;2024-02-15T10:34:19;31.65;;;14.35;;
47635;SDS011;33364;50.766;15.338;2024-02-15T10:36:46;22.48;;;13.82;;
47635;SDS011;33364;50.766;15.338;2024-02-15T10:39:12;26.42;;;15.95;;
47635;SDS011;33364;50.766;15.338;2024-02-15T10:44:21;25.33;;;14.68;;
47635;SDS011;33364;50.766;15.338;2024-02-15T10:46:50;27.60;;;16.08;;
47635;SDS011;33364;50.766;15.338;2024-02-15T10:49:17;30.40;;;17.15;;
47635;SDS011;33364;50.766;15.338;2024-02-15T10:52:05;28.50;;;16.55;;
47635;SDS011;33364;50.766;15.338;2024-02-15T10:54:41;25.95;;;15.95;;
47635;SDS011;33364;50.766;15.338;2024-02-15T10:57:12;28.20;;;15.40;;
47635;SDS011;33364;50.766;15.338;2024-02-15T10:59:59;31.88;;;16.30;;
47635;SDS011;33364;50.766;15.338;2024-02-15T11:02:39;23.63;;;13.10;;
47635;SDS011;33364;50.766;15.338;2024-02-15T11:05:14;26.77;;;16.33;;
47635;SDS011;33364;50.766;15.338;2024-02-15T11:07:46;32.13;;;19.52;;
47635;SDS011;33364;50.766;15.338;2024-02-15T11:10:12;27.67;;;17.63;;
47635;SDS011;33364;50.766;15.338;2024-02-15T11:12:42;35.28;;;15.25;;
47635;SDS011;33364;50.766;15.338;2024-02-15T11:15:11;28.77;;;15.02;;
47635;SDS011;33364;50.766;15.338;2024-02-15T11:20:09;75.32;;;35.75;;
47635;SDS011;33364;50.766;15.338;2024-02-15T11:22:37;50.88;;;28.25;;
47635;SDS011;33364;50.766;15.338;2024-02-15T11:25:04;30.05;;;16.90;;
47635;SDS011;33364;50.766;15.338;2024-02-15T11:27:42;52.38;;;26.77;;
47635;SDS011;33364;50.766;15.338;2024-02-15T11:30:08;62.65;;;41.63;;
47635;SDS011;33364;50.766;15.338;2024-02-15T11:32:38;49.50;;;29.23;;
47635;SDS011;33364;50.766;15.338;2024-02-15T11:35:09;37.33;;;24.65;;
47635;SDS011;33364;50.766;15.338;2024-02-15T11:43:08;61.10;;;29.00;;
47635;SDS011;33364;50.766;15.338;2024-02-15T11:45:35;29.30;;;16.30;;
47635;SDS011;33364;50.766;15.338;2024-02-15T11:48:10;26.85;;;16.13;;
47635;SDS011;33364;50.766;15.338;2024-02-15T11:50:37;31.10;;;17.63;;
47635;SDS011;33364;50.766;15.338;2024-02-15T11:53:05;28.90;;;18.90;;
47635;SDS011;33364;50.766;15.338;2024-02-15T11:55:35;27.25;;;17.45;;
47635;SDS011;33364;50.766;15.338;2024-02-15T11:58:02;32.75;;;19.25;;
47635;SDS011;33364;50.766;15.338;2024-02-15T12:00:35;29.58;;;18.17;;
47635;SDS011;33364;50.766;15.338;2024-02-15T12:03:23;37.85;;;21.92;;
47635;SDS011;33364;50.766;15.338;2024-02-15T12:06:22;70.07;;;39.47;;
47635;SDS011;33364;50.766;15.338;2024-02-15T12:09:09;110.95;;;67.72;;
47635;SDS011;33364;50.766;15.338;2024-02-15T12:11:59;88.63;;;53.33;;
47635;SDS011;33364;50.766;15.338;2024-02-15T12:14:43;65.35;;;40.03;;
47635;SDS011;33364;50.766;15.338;2024-02-15T12:17:28;40.78;;;25.40;;
47635;SDS011;33364;50.766;15.338;2024-02-15T12:20:12;41.67;;;27.58;;
47635;SDS011;33364;50.766;15.338;2024-02-15T12:22:43;39.22;;;23.25;;
47635;SDS011;33364;50.766;15.338;2024-02-15T12:25:16;60.65;;;24.38;;
47635;SDS011;33364;50.766;15.338;2024-02-15T12:27:46;112.13;;;27.17;;
47635;SDS011;33364;50.766;15.338;2024-02-15T12:30:18;62.15;;;23.92;;
47635;SDS011;33364;50.766;15.338;2024-02-15T12:32:48;50.80;;;16.88;;
47635;SDS011;33364;50.766;15.338;2024-02-15T12:35:16;33.80;;;19.83;;
47635;SDS011;33364;50.766;15.338;2024-02-15T12:38:00;123.47;;;36.97;;
47635;SDS011;33364;50.766;15.338;2024-02-15T12:40:31;61.42;;;29.73;;
47635;SDS011;33364;50.766;15.338;2024-02-15T12:42:59;49.95;;;23.65;;
47635;SDS011;33364;50.766;15.338;2024-02-15T12:45:25;54.30;;;21.42;;
47635;SDS011;33364;50.766;15.338;2024-02-15T12:47:55;41.92;;;22.98;;
47635;SDS011;33364;50.766;15.338;2024-02-15T12:50:22;37.97;;;20.35;;
47635;SDS011;33364;50.766;15.338;2024-02-15T12:52:49;33.22;;;19.08;;
47635;SDS011;33364;50.766;15.338;2024-02-15T12:55:16;34.70;;;17.88;;
47635;SDS011;33364;50.766;15.338;2024-02-15T12:57:54;33.97;;;19.25;;
47635;SDS011;33364;50.766;15.338;2024-02-15T13:00:23;50.58;;;22.67;;
47635;SDS011;33364;50.766;15.338;2024-02-15T13:02:54;54.72;;;24.65;;
47635;SDS011;33364;50.766;15.338;2024-02-15T13:05:22;55.00;;;33.88;;
47635;SDS011;33364;50.766;15.338;2024-02-15T13:07:49;50.83;;;26.48;;
47635;SDS011;33364;50.766;15.338;2024-02-15T13:10:15;40.67;;;24.35;;
47635;SDS011;33364;50.766;15.338;2024-02-15T13:12:42;37.33;;;20.42;;
47635;SDS011;33364;50.766;15.338;2024-02-15T13:15:12;96.93;;;21.42;;
47635;SDS011;33364;50.766;15.338;2024-02-15T13:17:47;36.47;;;19.30;;
47635;SDS011;33364;50.766;15.338;2024-02-15T13:20:19;51.75;;;16.15;;
47635;SDS011;33364;50.766;15.338;2024-02-15T13:22:55;26.52;;;16.70;;
47635;SDS011;33364;50.766;15.338;2024-02-15T13:25:25;19.80;;;13.45;;
47635;SDS011;33364;50.766;15.338;2024-02-15T13:27:51;33.17;;;14.60;;
47635;SDS011;33364;50.766;15.338;2024-02-15T13:30:17;22.58;;;15.27;;
47635;SDS011;33364;50.766;15.338;2024-02-15T13:32:48;24.38;;;14.70;;
47635;SDS011;33364;50.766;15.338;2024-02-15T13:35:16;20.27;;;14.60;;
47635;SDS011;33364;50.766;15.338;2024-02-15T13:37:52;22.83;;;13.10;;
47635;SDS011;33364;50.766;15.338;2024-02-15T13:40:26;20.20;;;14.25;;
47635;SDS011;33364;50.766;15.338;2024-02-15T13:42:57;22.13;;;14.10;;
47635;SDS011;33364;50.766;15.338;2024-02-15T13:45:26;22.02;;;15.80;;
47635;SDS011;33364;50.766;15.338;2024-02-15T13:47:58;24.42;;;15.48;;
47635;SDS011;33364;50.766;15.338;2024-02-15T13:50:27;22.88;;;15.95;;
47635;SDS011;33364;50.766;15.338;2024-02-15T13:52:54;20.77;;;15.25;;
47635;SDS011;33364;50.766;15.338;2024-02-15T13:55:20;21.80;;;14.65;;
47635;SDS011;33364;50.766;15.338;2024-02-15T13:57:46;22.52;;;14.75;;
47635;SDS011;33364;50.766;15.338;2024-02-15T14:00:16;18.27;;;12.55;;
47635;SDS011;33364;50.766;15.338;2024-02-15T14:05:19;19.45;;;14.48;;
47635;SDS011;33364;50.766;15.338;2024-02-15T14:07:51;19.83;;;14.40;;
47635;SDS011;33364;50.766;15.338;2024-02-15T14:10:25;27.15;;;18.23;;
47635;SDS011;33364;50.766;15.338;2024-02-15T14:12:54;25.40;;;16.73;;
47635;SDS011;33364;50.766;15.338;2024-02-15T14:15:50;28.98;;;20.13;;
47635;SDS011;33364;50.766;15.338;2024-02-15T14:18:16;30.75;;;17.95;;
47635;SDS011;33364;50.766;15.338;2024-02-15T14:20:45;21.88;;;14.23;;
47635;SDS011;33364;50.766;15.338;2024-02-15T14:23:14;28.95;;;18.58;;
47635;SDS011;33364;50.766;15.338;2024-02-15T14:25:40;21.48;;;14.15;;
47635;SDS011;33364;50.766;15.338;2024-02-15T14:28:06;35.28;;;16.52;;
47635;SDS011;33364;50.766;15.338;2024-02-15T14:30:34;28.25;;;18.48;;
47635;SDS011;33364;50.766;15.338;2024-02-15T14:33:18;62.65;;;36.15;;
47635;SDS011;33364;50.766;15.338;2024-02-15T14:35:45;35.58;;;20.90;;
47635;SDS011;33364;50.766;15.338;2024-02-15T14:38:11;33.40;;;22.15;;
47635;SDS011;33364;50.766;15.338;2024-02-15T14:40:39;38.03;;;22.25;;
47635;SDS011;33364;50.766;15.338;2024-02-15T14:43:08;47.92;;;28.33;;